sensor_id;sensor_type;location;lat;lon;timestamp;pressure;altitude;pressure_sealevel;temperature;humidity
39105;BME280;46464;51.154;13.812;2023-09-08T00:02:17;51837.88;;;-146.96;77.87
39105;BME280;46464;51.154;13.812;2023-09-08T00:04:43;51827.72;;;-146.96;78.05
39105;BME280;46464;51.154;13.812;2023-09-08T00:07:10;51870.44;;;-146.96;78.92
39105;BME280;46464;51.154;13.812;2023-09-08T00:09:36;51864.34;;;-146.96;79.60
39105;BME280;46464;51.154;13.812;2023-09-08T00:12:03;51866.38;;;-146.96;80.24
39105;BME280;46464;51.154;13.812;2023-09-08T00:17:11;51884.69;;;-146.96;81.78
39105;BME280;46464;51.154;13.812;2023-09-08T00:19:38;51894.84;;;-146.96;82.40
39105;BME280;46464;51.154;13.812;2023-09-08T00:22:04;51880.63;;;-146.96;83.40
39105;BME280;46464;51.154;13.812;2023-09-08T00:24:34;51949.78;;;-146.96;84.11
39105;BME280;46464;51.154;13.812;2023-09-08T00:27:00;51929.44;;;-146.96;84.98
39105;BME280;46464;51.154;13.812;2023-09-08T00:29:27;51955.88;;;-146.96;85.97
39105;BME280;46464;51.154;13.812;2023-09-08T00:31:53;51915.19;;;-146.96;86.41
39105;BME280;46464;51.154;13.812;2023-09-08T00:34:20;51913.16;;;-146.96;86.53
39105;BME280;46464;51.154;13.812;2023-09-08T00:36:46;51949.78;;;-146.96;87.13
39105;BME280;46464;51.154;13.812;2023-09-08T00:39:13;51966.06;;;-146.96;87.30
39105;BME280;46464;51.154;13.812;2023-09-08T00:41:39;51968.09;;;-146.96;88.02
39105;BME280;46464;51.154;13.812;2023-09-08T00:44:06;51998.63;;;-146.96;90.87
39105;BME280;46464;51.154;13.812;2023-09-08T00:46:35;51953.84;;;-146.96;91.36
39105;BME280;46464;51.154;13.812;2023-09-08T00:49:01;51927.41;;;-146.96;89.55
39105;BME280;46464;51.154;13.812;2023-09-08T00:51:28;51900.97;;;-146.96;87.30
39105;BME280;46464;51.154;13.812;2023-09-08T00:53:55;51905.03;;;-146.96;85.88
39105;BME280;46464;51.154;13.812;2023-09-08T00:56:21;51919.28;;;-146.96;84.35
39105;BME280;46464;51.154;13.812;2023-09-08T00:58:48;51933.50;;;-146.96;83.73
39105;BME280;46464;51.154;13.812;2023-09-08T01:01:16;51892.81;;;-146.96;82.84
39105;BME280;46464;51.154;13.812;2023-09-08T01:03:43;51929.44;;;-146.96;83.27
39105;BME280;46464;51.154;13.812;2023-09-08T01:06:10;51937.56;;;-146.96;83.15
39105;BME280;46464;51.154;13.812;2023-09-08T01:08:37;51931.47;;;-146.96;82.06
39105;BME280;46464;51.154;13.812;2023-09-08T01:11:04;51868.41;;;-146.96;81.04
39105;BME280;46464;51.154;13.812;2023-09-08T01:13:31;51896.88;;;-146.96;79.96
39105;BME280;46464;51.154;13.812;2023-09-08T01:15:57;51905.03;;;-146.96;79.93
39105;BME280;46464;51.154;13.812;2023-09-08T01:18:24;51858.22;;;-146.96;79.81
39105;BME280;46464;51.154;13.812;2023-09-08T01:25:53;51890.78;;;-146.96;82.03
39105;BME280;46464;51.154;13.812;2023-09-08T01:28:21;51896.88;;;-146.96;82.29
39105;BME280;46464;51.154;13.812;2023-09-08T01:30:48;51890.78;;;-146.96;82.00
39105;BME280;46464;51.154;13.812;2023-09-08T01:33:15;51911.13;;;-146.96;81.35
39105;BME280;46464;51.154;13.812;2023-09-08T01:35:42;51913.16;;;-146.96;80.54
39105;BME280;46464;51.154;13.812;2023-09-08T01:38:09;51866.38;;;-146.96;80.49
39105;BME280;46464;51.154;13.812;2023-09-08T01:40:35;51892.81;;;-146.96;79.80
39105;BME280;46464;51.154;13.812;2023-09-08T01:43:02;51880.63;;;-146.96;80.41
39105;BME280;46464;51.154;13.812;2023-09-08T01:45:28;51939.63;;;-146.96;80.49
39105;BME280;46464;51.154;13.812;2023-09-08T01:50:26;51903.00;;;-146.96;82.77
39105;BME280;46464;51.154;13.812;2023-09-08T01:52:52;51964.03;;;-146.96;84.24
39105;BME280;46464;51.154;13.812;2023-09-08T01:58:26;51933.50;;;-146.96;84.19
39105;BME280;46464;51.154;13.812;2023-09-08T02:00:53;51915.19;;;-146.96;83.17
39105;BME280;46464;51.154;13.812;2023-09-08T02:03:20;51929.44;;;-146.96;84.38
39105;BME280;46464;51.154;13.812;2023-09-08T02:05:46;51898.91;;;-146.96;82.11
39105;BME280;46464;51.154;13.812;2023-09-08T02:08:13;51866.38;;;-146.96;79.75
39105;BME280;46464;51.154;13.812;2023-09-08T02:10:41;51864.34;;;-146.96;78.31
39105;BME280;46464;51.154;13.812;2023-09-08T02:13:07;51878.56;;;-146.96;77.39
39105;BME280;46464;51.154;13.812;2023-09-08T02:15:36;51852.13;;;-146.96;77.10
39105;BME280;46464;51.154;13.812;2023-09-08T02:18:03;51856.19;;;-146.96;77.21
39105;BME280;46464;51.154;13.812;2023-09-08T02:20:30;51876.53;;;-146.96;76.48
39105;BME280;46464;51.154;13.812;2023-09-08T02:22:57;51868.41;;;-146.96;76.93
39105;BME280;46464;51.154;13.812;2023-09-08T02:25:24;51856.19;;;-146.96;76.71
39105;BME280;46464;51.154;13.812;2023-09-08T02:27:50;51829.75;;;-146.96;76.28
39105;BME280;46464;51.154;13.812;2023-09-08T02:30:17;51866.38;;;-146.96;76.05
39105;BME280;46464;51.154;13.812;2023-09-08T02:32:43;51854.16;;;-146.96;75.24
39105;BME280;46464;51.154;13.812;2023-09-08T02:35:10;51850.09;;;-146.96;75.54
39105;BME280;46464;51.154;13.812;2023-09-08T02:37:36;51878.56;;;-146.96;75.73
39105;BME280;46464;51.154;13.812;2023-09-08T02:40:03;51907.06;;;-146.96;76.67
39105;BME280;46464;51.154;13.812;2023-09-08T02:42:31;51907.06;;;-146.96;78.77
39105;BME280;46464;51.154;13.812;2023-09-08T02:44:57;51917.22;;;-146.96;79.30
39105;BME280;46464;51.154;13.812;2023-09-08T02:47:24;51935.53;;;-146.96;79.75
39105;BME280;46464;51.154;13.812;2023-09-08T02:49:50;51925.38;;;-146.96;80.32
39105;BME280;46464;51.154;13.812;2023-09-08T02:52:16;51953.84;;;-146.96;81.04
39105;BME280;46464;51.154;13.812;2023-09-08T02:54:46;51935.53;;;-146.96;82.05
39105;BME280;46464;51.154;13.812;2023-09-08T02:57:12;51929.44;;;-146.96;83.07
39105;BME280;46464;51.154;13.812;2023-09-08T02:59:38;51941.66;;;-146.96;85.15
39105;BME280;46464;51.154;13.812;2023-09-08T03:02:05;51943.69;;;-146.96;86.43
39105;BME280;46464;51.154;13.812;2023-09-08T03:04:31;51972.16;;;-146.96;87.11
39105;BME280;46464;51.154;13.812;2023-09-08T03:06:58;51982.34;;;-146.96;87.57
39105;BME280;46464;51.154;13.812;2023-09-08T03:09:24;51964.03;;;-146.96;88.46
39105;BME280;46464;51.154;13.812;2023-09-08T03:11:51;52000.66;;;-146.96;88.59
39105;BME280;46464;51.154;13.812;2023-09-08T03:14:17;51996.59;;;-146.96;88.87
39105;BME280;46464;51.154;13.812;2023-09-08T03:16:44;51974.19;;;-146.96;89.68
39105;BME280;46464;51.154;13.812;2023-09-08T03:19:10;51986.41;;;-146.96;90.07
39105;BME280;46464;51.154;13.812;2023-09-08T03:21:37;51978.28;;;-146.96;90.30
39105;BME280;46464;51.154;13.812;2023-09-08T03:24:03;51996.59;;;-146.96;91.03
39105;BME280;46464;51.154;13.812;2023-09-08T03:26:30;51964.03;;;-146.96;91.51
39105;BME280;46464;51.154;13.812;2023-09-08T03:28:56;52006.75;;;-146.96;91.26
39105;BME280;46464;51.154;13.812;2023-09-08T03:31:23;51980.31;;;-146.96;91.01
39105;BME280;46464;51.154;13.812;2023-09-08T03:33:49;51986.41;;;-146.96;90.83
39105;BME280;46464;51.154;13.812;2023-09-08T03:36:16;51986.41;;;-146.96;90.64
39105;BME280;46464;51.154;13.812;2023-09-08T03:38:43;52031.16;;;-146.96;90.86
39105;BME280;46464;51.154;13.812;2023-09-08T03:41:09;51976.22;;;-146.96;91.45
39105;BME280;46464;51.154;13.812;2023-09-08T03:43:37;52027.09;;;-146.96;92.12
39105;BME280;46464;51.154;13.812;2023-09-08T03:46:03;51998.63;;;-146.96;92.53
39105;BME280;46464;51.154;13.812;2023-09-08T03:48:30;51996.59;;;-146.96;92.75
39105;BME280;46464;51.154;13.812;2023-09-08T03:50:56;51992.50;;;-146.96;92.97
39105;BME280;46464;51.154;13.812;2023-09-08T03:53:23;52004.72;;;-146.96;93.24
39105;BME280;46464;51.154;13.812;2023-09-08T03:55:49;52012.84;;;-146.96;93.42
39105;BME280;46464;51.154;13.812;2023-09-08T03:58:16;51980.31;;;-146.96;93.60
39105;BME280;46464;51.154;13.812;2023-09-08T04:00:42;52008.78;;;-146.96;94.04
39105;BME280;46464;51.154;13.812;2023-09-08T04:03:09;52041.34;;;-146.96;94.10
39105;BME280;46464;51.154;13.812;2023-09-08T04:05:35;52021.00;;;-146.96;94.32
39105;BME280;46464;51.154;13.812;2023-09-08T04:08:02;52016.94;;;-146.96;94.71
39105;BME280;46464;51.154;13.812;2023-09-08T04:10:28;52002.69;;;-146.96;94.46
39105;BME280;46464;51.154;13.812;2023-09-08T04:12:55;52012.84;;;-146.96;94.57
39105;BME280;46464;51.154;13.812;2023-09-08T04:15:21;52023.03;;;-146.96;94.87
39105;BME280;46464;51.154;13.812;2023-09-08T04:17:48;52014.88;;;-146.96;95.00
39105;BME280;46464;51.154;13.812;2023-09-08T04:20:15;52016.94;;;-146.96;95.36
39105;BME280;46464;51.154;13.812;2023-09-08T04:22:42;52055.59;;;-146.96;95.39
39105;BME280;46464;51.154;13.812;2023-09-08T04:25:09;52053.53;;;-146.96;95.76
39105;BME280;46464;51.154;13.812;2023-09-08T04:27:36;52023.03;;;-146.96;95.82
39105;BME280;46464;51.154;13.812;2023-09-08T04:30:06;52069.81;;;-146.96;95.85
39105;BME280;46464;51.154;13.812;2023-09-08T04:32:33;52035.25;;;-146.96;96.58
39105;BME280;46464;51.154;13.812;2023-09-08T04:34:59;52035.25;;;-146.96;97.55
39105;BME280;46464;51.154;13.812;2023-09-08T04:37:26;52055.59;;;-146.96;98.39
39105;BME280;46464;51.154;13.812;2023-09-08T04:39:52;52063.72;;;-146.96;99.51
39105;BME280;46464;51.154;13.812;2023-09-08T04:42:19;52077.97;;;-146.96;100.00
39105;BME280;46464;51.154;13.812;2023-09-08T04:44:45;52053.53;;;-146.96;100.00
39105;BME280;46464;51.154;13.812;2023-09-08T04:47:13;52055.59;;;-146.96;100.00
39105;BME280;46464;51.154;13.812;2023-09-08T04:49:39;52047.44;;;-146.96;100.00
39105;BME280;46464;51.154;13.812;2023-09-08T04:52:06;52094.25;;;-146.96;100.00
39105;BME280;46464;51.154;13.812;2023-09-08T04:54:33;52065.75;;;-146.96;100.00
39105;BME280;46464;51.154;13.812;2023-09-08T04:56:59;52039.31;;;-146.96;100.00
39105;BME280;46464;51.154;13.812;2023-09-08T04:59:45;52098.31;;;-146.96;100.00
39105;BME280;46464;51.154;13.812;2023-09-08T05:02:12;52021.00;;;-146.96;100.00
39105;BME280;46464;51.154;13.812;2023-09-08T05:04:39;52031.16;;;-146.96;100.00
39105;BME280;46464;51.154;13.812;2023-09-08T05:07:05;52108.47;;;-146.96;100.00
39105;BME280;46464;51.154;13.812;2023-09-08T05:09:31;52043.38;;;-146.96;100.00
39105;BME280;46464;51.154;13.812;2023-09-08T05:12:00;52063.72;;;-146.96;100.00
39105;BME280;46464;51.154;13.812;2023-09-08T05:14:26;52088.13;;;-146.96;100.00
39105;BME280;46464;51.154;13.812;2023-09-08T05:16:53;52053.53;;;-146.96;100.00
39105;BME280;46464;51.154;13.812;2023-09-08T05:19:22;52049.47;;;-146.96;100.00
39105;BME280;46464;51.154;13.812;2023-09-08T05:21:53;52033.19;;;-146.96;100.00
39105;BME280;46464;51.154;13.812;2023-09-08T05:24:20;52031.16;;;-146.96;100.00
39105;BME280;46464;51.154;13.812;2023-09-08T05:26:47;52063.72;;;-146.96;100.00
39105;BME280;46464;51.154;13.812;2023-09-08T05:29:14;52045.41;;;-146.96;100.00
39105;BME280;46464;51.154;13.812;2023-09-08T05:31:40;51992.50;;;-146.96;100.00
39105;BME280;46464;51.154;13.812;2023-09-08T05:34:06;52023.03;;;-146.96;100.00
39105;BME280;46464;51.154;13.812;2023-09-08T05:36:33;52010.81;;;-146.96;100.00
39105;BME280;46464;51.154;13.812;2023-09-08T05:39:02;52018.97;;;-146.96;100.00
39105;BME280;46464;51.154;13.812;2023-09-08T05:41:28;51986.41;;;-146.96;100.00
39105;BME280;46464;51.154;13.812;2023-09-08T05:43:55;51947.75;;;-146.96;99.80
39105;BME280;46464;51.154;13.812;2023-09-08T05:46:21;51994.53;;;-146.96;98.30
39105;BME280;46464;51.154;13.812;2023-09-08T05:48:48;51947.75;;;-146.96;96.95
39105;BME280;46464;51.154;13.812;2023-09-08T05:51:15;51945.72;;;-146.96;95.03
39105;BME280;46464;51.154;13.812;2023-09-08T05:56:30;51953.84;;;-146.96;92.54
39105;BME280;46464;51.154;13.812;2023-09-08T05:58:57;51935.53;;;-146.96;92.02
39105;BME280;46464;51.154;13.812;2023-09-08T06:01:24;51962.00;;;-146.96;91.29
39105;BME280;46464;51.154;13.812;2023-09-08T06:03:51;51917.22;;;-146.96;90.92
39105;BME280;46464;51.154;13.812;2023-09-08T06:06:17;51898.91;;;-146.96;92.52
39105;BME280;46464;51.154;13.812;2023-09-08T06:08:44;51878.56;;;-146.96;85.32
39105;BME280;46464;51.154;13.812;2023-09-08T06:11:10;51819.56;;;-146.96;80.52
39105;BME280;46464;51.154;13.812;2023-09-08T06:13:38;51801.25;;;-146.96;76.96
39105;BME280;46464;51.154;13.812;2023-09-08T06:16:04;51766.69;;;-146.96;74.99
39105;BME280;46464;51.154;13.812;2023-09-08T06:18:31;51774.81;;;-146.96;71.97
39105;BME280;46464;51.154;13.812;2023-09-08T06:20:58;51728.03;;;-146.96;72.77
39105;BME280;46464;51.154;13.812;2023-09-08T06:23:25;51715.81;;;-146.96;69.77
39105;BME280;46464;51.154;13.812;2023-09-08T06:25:55;51730.06;;;-146.96;71.16
39105;BME280;46464;51.154;13.812;2023-09-08T06:28:23;51740.22;;;-146.96;68.42
39105;BME280;46464;51.154;13.812;2023-09-08T06:30:50;51695.47;;;-146.96;66.47
39105;BME280;46464;51.154;13.812;2023-09-08T06:33:16;51703.63;;;-146.96;66.40
39105;BME280;46464;51.154;13.812;2023-09-08T06:35:43;51697.50;;;-146.96;67.63
39105;BME280;46464;51.154;13.812;2023-09-08T06:38:09;51689.38;;;-146.96;66.90
39105;BME280;46464;51.154;13.812;2023-09-08T06:40:35;51664.97;;;-146.96;64.84
39105;BME280;46464;51.154;13.812;2023-09-08T06:43:02;51693.44;;;-146.96;67.25
39105;BME280;46464;51.154;13.812;2023-09-08T06:45:29;51660.88;;;-146.96;65.74
39105;BME280;46464;51.154;13.812;2023-09-08T06:47:55;51669.03;;;-146.96;64.26
39105;BME280;46464;51.154;13.812;2023-09-08T06:50:22;51654.78;;;-146.96;62.41
39105;BME280;46464;51.154;13.812;2023-09-08T06:52:49;51681.22;;;-146.96;63.83
39105;BME280;46464;51.154;13.812;2023-09-08T06:55:16;51640.53;;;-146.96;62.41
39105;BME280;46464;51.154;13.812;2023-09-08T06:57:43;51662.94;;;-146.96;63.04
39105;BME280;46464;51.154;13.812;2023-09-08T07:00:09;51632.41;;;-146.96;62.19
39105;BME280;46464;51.154;13.812;2023-09-08T07:02:38;51630.38;;;-146.96;59.68
39105;BME280;46464;51.154;13.812;2023-09-08T07:05:05;51658.84;;;-146.96;58.76
39105;BME280;46464;51.154;13.812;2023-09-08T07:07:35;51622.25;;;-146.96;60.39
39105;BME280;46464;51.154;13.812;2023-09-08T07:10:04;51599.84;;;-146.96;62.10
39105;BME280;46464;51.154;13.812;2023-09-08T07:12:31;51612.06;;;-146.96;60.89
39105;BME280;46464;51.154;13.812;2023-09-08T07:14:57;51624.28;;;-146.96;58.12
39105;BME280;46464;51.154;13.812;2023-09-08T07:17:26;51620.19;;;-146.96;59.43
39105;BME280;46464;51.154;13.812;2023-09-08T07:19:52;51612.06;;;-146.96;60.08
39105;BME280;46464;51.154;13.812;2023-09-08T07:22:19;51644.63;;;-146.96;58.66
39105;BME280;46464;51.154;13.812;2023-09-08T07:24:46;51624.28;;;-146.96;58.00
39105;BME280;46464;51.154;13.812;2023-09-08T07:27:12;51616.13;;;-146.96;58.63
39105;BME280;46464;51.154;13.812;2023-09-08T07:29:40;51605.97;;;-146.96;57.53
39105;BME280;46464;51.154;13.812;2023-09-08T07:32:07;51610.03;;;-146.96;56.37
39105;BME280;46464;51.154;13.812;2023-09-08T07:34:34;51575.44;;;-146.96;57.11
39105;BME280;46464;51.154;13.812;2023-09-08T07:37:01;51549.00;;;-146.96;57.07
39105;BME280;46464;51.154;13.812;2023-09-08T07:39:27;51565.28;;;-146.96;56.06
39105;BME280;46464;51.154;13.812;2023-09-08T07:41:54;51569.34;;;-146.96;55.28
39105;BME280;46464;51.154;13.812;2023-09-08T07:44:26;51546.97;;;-146.96;58.67
39105;BME280;46464;51.154;13.812;2023-09-08T07:46:53;51524.59;;;-146.96;55.49
39105;BME280;46464;51.154;13.812;2023-09-08T07:49:21;51514.41;;;-146.96;54.15
39105;BME280;46464;51.154;13.812;2023-09-08T07:51:48;51512.38;;;-146.96;53.35
39105;BME280;46464;51.154;13.812;2023-09-08T07:54:14;51492.03;;;-146.96;53.31
39105;BME280;46464;51.154;13.812;2023-09-08T07:56:40;51498.16;;;-146.96;53.11
39105;BME280;46464;51.154;13.812;2023-09-08T07:59:07;51508.31;;;-146.96;52.50
39105;BME280;46464;51.154;13.812;2023-09-08T08:01:33;51528.66;;;-146.96;53.79
39105;BME280;46464;51.154;13.812;2023-09-08T08:04:00;51496.09;;;-146.96;51.58
39105;BME280;46464;51.154;13.812;2023-09-08T08:06:29;51510.34;;;-146.96;53.26
39105;BME280;46464;51.154;13.812;2023-09-08T08:08:56;51449.31;;;-146.96;53.68
39105;BME280;46464;51.154;13.812;2023-09-08T08:11:24;51469.66;;;-146.96;50.62
39105;BME280;46464;51.154;13.812;2023-09-08T08:13:51;51435.09;;;-146.96;49.88
39105;BME280;46464;51.154;13.812;2023-09-08T08:16:18;51467.63;;;-146.96;49.63
39105;BME280;46464;51.154;13.812;2023-09-08T08:18:47;51494.06;;;-146.96;50.60
39105;BME280;46464;51.154;13.812;2023-09-08T08:21:13;51498.16;;;-146.96;49.33
39105;BME280;46464;51.154;13.812;2023-09-08T08:23:40;51439.16;;;-146.96;48.99
39105;BME280;46464;51.154;13.812;2023-09-08T08:26:06;51469.66;;;-146.96;50.73
39105;BME280;46464;51.154;13.812;2023-09-08T08:28:33;51465.59;;;-146.96;48.70
39105;BME280;46464;51.154;13.812;2023-09-08T08:31:00;51473.72;;;-146.96;48.18
39105;BME280;46464;51.154;13.812;2023-09-08T08:33:27;51475.75;;;-146.96;47.21
39105;BME280;46464;51.154;13.812;2023-09-08T08:35:55;51453.38;;;-146.96;48.04
39105;BME280;46464;51.154;13.812;2023-09-08T08:38:22;51457.47;;;-146.96;46.26
39105;BME280;46464;51.154;13.812;2023-09-08T08:40:48;51439.16;;;-146.96;47.56
39105;BME280;46464;51.154;13.812;2023-09-08T08:43:15;51435.09;;;-146.96;45.21
39105;BME280;46464;51.154;13.812;2023-09-08T08:45:41;51420.84;;;-146.96;46.07
39105;BME280;46464;51.154;13.812;2023-09-08T08:48:09;51416.78;;;-146.96;46.25
39105;BME280;46464;51.154;13.812;2023-09-08T08:50:36;51414.75;;;-146.96;45.02
39105;BME280;46464;51.154;13.812;2023-09-08T08:53:03;51422.88;;;-146.96;45.37
39105;BME280;46464;51.154;13.812;2023-09-08T08:55:30;51388.28;;;-146.96;44.50
39105;BME280;46464;51.154;13.812;2023-09-08T08:58:01;51404.56;;;-146.96;44.18
39105;BME280;46464;51.154;13.812;2023-09-08T09:00:29;51410.66;;;-146.96;43.51
39105;BME280;46464;51.154;13.812;2023-09-08T09:02:56;51402.53;;;-146.96;42.50
39105;BME280;46464;51.154;13.812;2023-09-08T09:05:40;51426.94;;;-146.96;42.92
39105;BME280;46464;51.154;13.812;2023-09-08T09:08:27;51437.13;;;-146.96;44.01
39105;BME280;46464;51.154;13.812;2023-09-08T09:10:54;51404.56;;;-146.96;43.18
39105;BME280;46464;51.154;13.812;2023-09-08T09:13:20;51439.16;;;-146.96;43.32
39105;BME280;46464;51.154;13.812;2023-09-08T09:15:48;51363.88;;;-146.96;44.21
39105;BME280;46464;51.154;13.812;2023-09-08T09:18:15;51414.75;;;-146.96;43.55
39105;BME280;46464;51.154;13.812;2023-09-08T09:20:45;51386.25;;;-146.96;43.41
39105;BME280;46464;51.154;13.812;2023-09-08T09:23:29;51376.09;;;-146.96;43.58
39105;BME280;46464;51.154;13.812;2023-09-08T09:25:56;51410.66;;;-146.96;41.68
39105;BME280;46464;51.154;13.812;2023-09-08T09:28:23;51386.25;;;-146.96;41.71
39105;BME280;46464;51.154;13.812;2023-09-08T09:30:50;51376.09;;;-146.96;41.54
39105;BME280;46464;51.154;13.812;2023-09-08T09:33:17;51400.50;;;-146.96;42.46
39105;BME280;46464;51.154;13.812;2023-09-08T09:35:45;51341.50;;;-146.96;42.44
39105;BME280;46464;51.154;13.812;2023-09-08T09:38:12;51369.97;;;-146.96;41.11
39105;BME280;46464;51.154;13.812;2023-09-08T09:40:39;51367.94;;;-146.96;40.98
39105;BME280;46464;51.154;13.812;2023-09-08T09:43:06;51386.25;;;-146.96;43.04
39105;BME280;46464;51.154;13.812;2023-09-08T09:45:33;51367.94;;;-146.96;40.93
39105;BME280;46464;51.154;13.812;2023-09-08T09:48:01;51372.03;;;-146.96;40.26
39105;BME280;46464;51.154;13.812;2023-09-08T09:50:32;51357.78;;;-146.96;40.02
39105;BME280;46464;51.154;13.812;2023-09-08T09:53:00;51323.19;;;-146.96;40.13
39105;BME280;46464;51.154;13.812;2023-09-08T09:55:27;51388.28;;;-146.96;41.75
39105;BME280;46464;51.154;13.812;2023-09-08T09:57:57;51345.56;;;-146.96;40.46
39105;BME280;46464;51.154;13.812;2023-09-08T10:00:25;51329.31;;;-146.96;40.68
39105;BME280;46464;51.154;13.812;2023-09-08T10:02:52;51339.47;;;-146.96;39.24
39105;BME280;46464;51.154;13.812;2023-09-08T10:05:19;51337.44;;;-146.96;41.98
39105;BME280;46464;51.154;13.812;2023-09-08T10:07:47;51327.25;;;-146.96;39.31
39105;BME280;46464;51.154;13.812;2023-09-08T10:10:15;51353.72;;;-146.96;41.17
39105;BME280;46464;51.154;13.812;2023-09-08T10:12:43;51345.56;;;-146.96;40.79
39105;BME280;46464;51.154;13.812;2023-09-08T10:15:10;51319.13;;;-146.96;39.70
39105;BME280;46464;51.154;13.812;2023-09-08T10:17:37;51327.25;;;-146.96;40.27
39105;BME280;46464;51.154;13.812;2023-09-08T10:20:04;51319.13;;;-146.96;40.52
39105;BME280;46464;51.154;13.812;2023-09-08T10:22:38;51308.97;;;-146.96;39.53
39105;BME280;46464;51.154;13.812;2023-09-08T10:25:05;51313.03;;;-146.96;38.39
39105;BME280;46464;51.154;13.812;2023-09-08T10:27:32;51361.84;;;-146.96;38.32
39105;BME280;46464;51.154;13.812;2023-09-08T10:30:02;51345.56;;;-146.96;40.39
39105;BME280;46464;51.154;13.812;2023-09-08T10:32:31;51298.78;;;-146.96;38.06
39105;BME280;46464;51.154;13.812;2023-09-08T10:34:58;51315.06;;;-146.96;38.20
39105;BME280;46464;51.154;13.812;2023-09-08T10:37:26;51292.69;;;-146.96;38.16
39105;BME280;46464;51.154;13.812;2023-09-08T10:39:56;51329.31;;;-146.96;36.74
39105;BME280;46464;51.154;13.812;2023-09-08T10:42:23;51284.53;;;-146.96;37.51
39105;BME280;46464;51.154;13.812;2023-09-08T10:44:58;51278.44;;;-146.96;37.90
39105;BME280;46464;51.154;13.812;2023-09-08T10:47:34;51270.31;;;-146.96;36.48
39105;BME280;46464;51.154;13.812;2023-09-08T10:50:06;51264.19;;;-146.96;37.74
39105;BME280;46464;51.154;13.812;2023-09-08T10:52:34;51286.59;;;-146.96;37.08
39105;BME280;46464;51.154;13.812;2023-09-08T10:55:01;51290.66;;;-146.96;33.84
39105;BME280;46464;51.154;13.812;2023-09-08T10:57:29;51256.06;;;-146.96;34.81
39105;BME280;46464;51.154;13.812;2023-09-08T11:00:03;51288.63;;;-146.96;35.59
39105;BME280;46464;51.154;13.812;2023-09-08T11:02:37;51264.19;;;-146.96;34.85
39105;BME280;46464;51.154;13.812;2023-09-08T11:05:12;51237.75;;;-146.96;34.18
39105;BME280;46464;51.154;13.812;2023-09-08T11:07:44;51174.69;;;-146.96;33.57
39105;BME280;46464;51.154;13.812;2023-09-08T11:10:11;51231.66;;;-146.96;32.89
39105;BME280;46464;51.154;13.812;2023-09-08T11:12:38;51235.72;;;-146.96;33.38
39105;BME280;46464;51.154;13.812;2023-09-08T11:15:05;51223.53;;;-146.96;34.79
39105;BME280;46464;51.154;13.812;2023-09-08T11:17:37;51235.72;;;-146.96;33.98
39105;BME280;46464;51.154;13.812;2023-09-08T11:20:08;51247.94;;;-146.96;33.49
39105;BME280;46464;51.154;13.812;2023-09-08T11:22:36;51239.78;;;-146.96;32.96
39105;BME280;46464;51.154;13.812;2023-09-08T11:25:03;51195.03;;;-146.96;33.72
39105;BME280;46464;51.154;13.812;2023-09-08T11:27:32;51190.97;;;-146.96;34.51
39105;BME280;46464;51.154;13.812;2023-09-08T11:29:59;51178.78;;;-146.96;33.48
39105;BME280;46464;51.154;13.812;2023-09-08T11:32:25;51123.84;;;-146.96;32.92
39105;BME280;46464;51.154;13.812;2023-09-08T11:35:01;51156.41;;;-146.96;33.88
39105;BME280;46464;51.154;13.812;2023-09-08T11:37:28;51209.28;;;-146.96;34.45
39105;BME280;46464;51.154;13.812;2023-09-08T11:39:55;51174.69;;;-146.96;35.52
39105;BME280;46464;51.154;13.812;2023-09-08T11:42:22;51231.66;;;-146.96;33.81
39105;BME280;46464;51.154;13.812;2023-09-08T11:44:48;51197.06;;;-146.96;32.44
39105;BME280;46464;51.154;13.812;2023-09-08T11:47:15;51215.38;;;-146.96;33.74
39105;BME280;46464;51.154;13.812;2023-09-08T11:49:42;51223.53;;;-146.96;33.29
39105;BME280;46464;51.154;13.812;2023-09-08T11:52:10;51184.88;;;-146.96;33.27
39105;BME280;46464;51.154;13.812;2023-09-08T11:54:37;51174.69;;;-146.96;33.89
39105;BME280;46464;51.154;13.812;2023-09-08T11:57:28;51205.22;;;-146.96;32.48
39105;BME280;46464;51.154;13.812;2023-09-08T11:59:54;51184.88;;;-146.96;33.05
39105;BME280;46464;51.154;13.812;2023-09-08T12:02:21;51211.31;;;-146.96;33.09
39105;BME280;46464;51.154;13.812;2023-09-08T12:04:48;51201.16;;;-146.96;33.63
39105;BME280;46464;51.154;13.812;2023-09-08T12:07:17;51184.88;;;-146.96;33.94
39105;BME280;46464;51.154;13.812;2023-09-08T12:09:46;51190.97;;;-146.96;32.70
39105;BME280;46464;51.154;13.812;2023-09-08T12:12:12;51140.13;;;-146.96;33.56
39105;BME280;46464;51.154;13.812;2023-09-08T12:14:42;51166.56;;;-146.96;33.91
39105;BME280;46464;51.154;13.812;2023-09-08T12:17:13;51178.78;;;-146.96;33.20
39105;BME280;46464;51.154;13.812;2023-09-08T12:19:43;51170.63;;;-146.96;32.94
39105;BME280;46464;51.154;13.812;2023-09-08T12:22:10;51136.06;;;-146.96;33.75
39105;BME280;46464;51.154;13.812;2023-09-08T12:27:19;51058.75;;;-146.96;32.50
39105;BME280;46464;51.154;13.812;2023-09-08T12:32:21;51093.34;;;-146.96;32.91
39105;BME280;46464;51.154;13.812;2023-09-08T12:34:48;51060.78;;;-146.96;31.88
39105;BME280;46464;51.154;13.812;2023-09-08T12:37:15;51068.94;;;-146.96;32.82
39105;BME280;46464;51.154;13.812;2023-09-08T12:39:45;51097.41;;;-146.96;32.67
39105;BME280;46464;51.154;13.812;2023-09-08T12:42:11;51138.09;;;-146.96;32.18
39105;BME280;46464;51.154;13.812;2023-09-08T12:44:38;51121.81;;;-146.96;32.52
39105;BME280;46464;51.154;13.812;2023-09-08T12:47:05;51131.97;;;-146.96;32.91
39105;BME280;46464;51.154;13.812;2023-09-08T12:49:32;51117.75;;;-146.96;32.21
39105;BME280;46464;51.154;13.812;2023-09-08T12:51:58;51093.34;;;-146.96;31.93
39105;BME280;46464;51.154;13.812;2023-09-08T12:54:25;51093.34;;;-146.96;32.21